Portada
METAR-TAF:

METAR-TAF

Aeropuertos :

Aeropuerto Internacional de Nadi

Nadi, Fiyi

latitud: 17-45S, longitud: 177-27E, altitud: 13 m

Observación

El informe se hizo hace 42 minutos, a las 15:00 UTC
Viento 2 kt con dirección variable
Temperatura 23°C
Humedad 89%
Presión 1011 hPa
Visibilidad 10 km o más
Cielo nuboso a una altura de 2800 ft
Cielo nuboso a una altura de 5000 ft

METAR: NFFN 201500Z VRB02KT 9999 BKN028 BKN050 23/21 Q1011 NOSIG

Hora: 04:42 (15:42 UTC)

Pronóstico

El informe se hizo hace 4 horas y 36 minutos, a las 11:06 UTC
Pronóstico válido del 20 a las 12 UTC al 21 a las 12 UTC
Viento 6 kt del este-sureste
Visibilidad 10 km o más
Nubes dispersas a una altura de 2800 ft
Evolucionando progresivamente
del 20 a las 22 UTC al 20 a las 24 UTC
Viento 12 kt del oeste
Evolucionando progresivamente
del 21 a las 04 UTC al 22 a las 06 UTC
Viento 5 kt del sureste

TAF: NFFN 201106Z 2012/2112 12006KT 9999 SCT028 BECMG 2022/2024 26012KT BECMG 2104/2206 14005KT

Observaciones y pronósticos meteorológicos de más de 4000 aeropuertos (mensajes METAR y TAF).

Los puntos amarillos y rojos representan las estaciones disponibles.

Ponga el ratón en el punto deseado para ver el nombre de la estación.

Haga clic para ver las observaciones y los pronósticos meteorológicos.

Para cambiar el mapa : haga clic en los botones verdes con una cruz de color negro para hacer un zoom, en el botón verde con un guión para alejar o en las flechas verdes para mapas adyacentes.


METAR-TAF: